createdAt,value
2018-03-01T00:00:34.309Z,6.32
2018-03-01T00:03:00.574Z,5.10
2018-03-01T00:05:26.795Z,5.15
2018-03-01T00:07:53.102Z,6.62
2018-03-01T00:10:19.385Z,7.45
2018-03-01T00:12:45.623Z,6.05
2018-03-01T00:15:11.949Z,5.22
2018-03-01T00:17:38.187Z,6.57
2018-03-01T00:20:04.435Z,6.72
2018-03-01T00:22:35.793Z,6.30
2018-03-01T00:25:02.052Z,5.55
2018-03-01T00:27:28.296Z,6.97
2018-03-01T00:29:54.534Z,4.87
2018-03-01T00:32:20.808Z,6.62
2018-03-01T00:34:47.018Z,5.18
2018-03-01T00:37:13.224Z,6.93
2018-03-01T00:39:39.487Z,6.15
2018-03-01T00:42:05.926Z,7.07
2018-03-01T00:44:32.190Z,5.70
2018-03-01T00:46:58.398Z,5.75
2018-03-01T00:49:24.622Z,6.22
2018-03-01T00:51:50.867Z,5.65
2018-03-01T00:54:17.092Z,5.97
2018-03-01T00:56:43.335Z,6.72
2018-03-01T00:59:09.607Z,5.75
2018-03-01T01:01:35.842Z,6.22
2018-03-01T01:04:02.071Z,5.37
2018-03-01T01:06:28.283Z,6.07
2018-03-01T01:08:54.540Z,6.00
2018-03-01T01:11:20.773Z,6.93
2018-03-01T01:13:46.978Z,6.70
2018-03-01T01:16:13.251Z,5.62
2018-03-01T01:18:39.480Z,6.35
2018-03-01T01:21:05.729Z,6.62
2018-03-01T01:23:31.943Z,7.10
2018-03-01T01:25:58.171Z,6.25
2018-03-01T01:28:24.454Z,6.75
2018-03-01T01:30:50.684Z,5.03
2018-03-01T01:33:16.943Z,5.57
2018-03-01T01:35:43.206Z,5.20
2018-03-01T01:38:09.427Z,6.55
2018-03-01T01:40:35.675Z,7.25
2018-03-01T01:43:01.885Z,5.70
2018-03-01T01:45:28.139Z,5.78
2018-03-01T01:47:54.379Z,4.82
2018-03-01T01:50:20.616Z,4.45
2018-03-01T01:52:46.852Z,6.85
2018-03-01T01:55:13.083Z,5.03
2018-03-01T01:57:39.324Z,6.80
2018-03-01T02:00:05.587Z,6.87
2018-03-01T02:02:31.804Z,5.90
2018-03-01T02:04:58.284Z,5.12
2018-03-01T02:07:24.502Z,4.00
2018-03-01T02:09:50.723Z,7.05
2018-03-01T02:12:16.960Z,5.32
2018-03-01T02:14:43.223Z,5.35
2018-03-01T02:17:09.435Z,7.00
2018-03-01T02:19:35.685Z,4.85
2018-03-01T02:22:01.908Z,4.78
2018-03-01T02:24:28.192Z,5.75
2018-03-01T02:26:54.451Z,5.93
2018-03-01T02:29:20.708Z,5.45
2018-03-01T02:31:46.951Z,5.45
2018-03-01T02:34:13.219Z,5.62
2018-03-01T02:36:39.427Z,4.93
2018-03-01T02:39:05.663Z,5.32
2018-03-01T02:41:31.895Z,5.47
2018-03-01T02:43:58.113Z,5.18
2018-03-01T02:46:24.339Z,4.90
2018-03-01T02:48:50.585Z,4.57
2018-03-01T02:51:16.835Z,4.93
2018-03-01T02:53:43.090Z,5.10
2018-03-01T02:56:09.303Z,6.60
2018-03-01T02:58:35.531Z,5.90
2018-03-01T03:01:01.743Z,5.00
2018-03-01T03:03:27.992Z,5.70
2018-03-01T03:05:54.263Z,7.12
2018-03-01T03:08:20.488Z,6.50
2018-03-01T03:10:46.743Z,5.80
2018-03-01T03:13:12.968Z,7.62
2018-03-01T03:15:39.217Z,4.97
2018-03-01T03:18:05.426Z,5.72
2018-03-01T03:20:31.668Z,4.93
2018-03-01T03:22:57.904Z,7.07
2018-03-01T03:25:24.124Z,5.20
2018-03-01T03:27:50.392Z,5.45
2018-03-01T03:30:16.601Z,6.12
2018-03-01T03:32:42.830Z,5.85
2018-03-01T03:35:09.076Z,5.10
2018-03-01T03:37:35.316Z,6.45
2018-03-01T03:40:01.564Z,4.95
2018-03-01T03:42:27.779Z,5.35
2018-03-01T03:44:54.007Z,4.93
2018-03-01T03:47:20.316Z,4.62
2018-03-01T03:49:46.526Z,5.18
2018-03-01T03:52:12.784Z,4.85
2018-03-01T03:54:39.020Z,4.60
2018-03-01T03:57:05.234Z,5.40
2018-03-01T03:59:31.479Z,5.00
2018-03-01T04:01:57.697Z,6.28
2018-03-01T04:04:23.908Z,6.57
2018-03-01T04:06:50.176Z,5.87
2018-03-01T04:09:16.383Z,6.50
2018-03-01T04:11:42.635Z,4.80
2018-03-01T04:14:08.852Z,6.47
2018-03-01T04:16:35.128Z,4.28
2018-03-01T04:19:01.391Z,5.15
2018-03-01T04:21:27.635Z,5.62
2018-03-01T04:23:53.843Z,7.10
2018-03-01T04:26:20.072Z,5.65
2018-03-01T04:28:46.304Z,5.22
2018-03-01T04:31:12.527Z,11.40
2018-03-01T04:33:38.799Z,9.40
2018-03-01T04:36:05.096Z,6.55
2018-03-01T04:38:31.300Z,5.20
2018-03-01T04:40:57.512Z,5.18
2018-03-01T04:43:23.766Z,4.35
2018-03-01T04:45:49.983Z,5.55
2018-03-01T04:48:16.268Z,5.68
2018-03-01T04:50:42.487Z,7.00
2018-03-01T04:53:08.708Z,5.62
2018-03-01T04:55:34.952Z,5.37
2018-03-01T04:58:01.176Z,6.15
2018-03-01T05:00:27.406Z,5.12
2018-03-01T05:02:53.627Z,5.18
2018-03-01T05:05:19.868Z,5.45
2018-03-01T05:07:46.080Z,5.12
2018-03-01T05:10:12.317Z,4.85
2018-03-01T05:12:38.530Z,5.85
2018-03-01T05:15:04.779Z,6.22
2018-03-01T05:17:30.998Z,5.15
2018-03-01T05:19:57.219Z,5.32
2018-03-01T05:22:23.464Z,4.37
2018-03-01T05:24:49.703Z,9.10
2018-03-01T05:27:15.939Z,5.85
2018-03-01T05:29:42.222Z,5.35
2018-03-01T05:32:08.467Z,6.78
2018-03-01T05:34:34.720Z,4.70
2018-03-01T05:37:00.959Z,4.62
2018-03-01T05:39:27.202Z,5.97
2018-03-01T05:41:53.455Z,5.37
2018-03-01T05:44:19.708Z,6.22
2018-03-01T05:46:45.939Z,6.80
2018-03-01T05:49:12.190Z,5.85
2018-03-01T05:51:38.403Z,5.43
2018-03-01T05:54:04.661Z,5.95
2018-03-01T05:56:30.867Z,7.07
2018-03-01T05:58:57.111Z,5.15
2018-03-01T06:01:23.350Z,5.57
2018-03-01T06:03:49.601Z,5.32
2018-03-01T06:06:15.803Z,4.97
2018-03-01T06:08:42.040Z,7.90
2018-03-01T06:11:08.271Z,6.35
2018-03-01T06:13:34.499Z,5.65
2018-03-01T06:16:00.735Z,4.60
2018-03-01T06:18:26.963Z,4.32
2018-03-01T06:20:53.223Z,4.93
2018-03-01T06:23:19.463Z,5.45
2018-03-01T06:25:45.720Z,5.82
2018-03-01T06:28:11.936Z,5.35
2018-03-01T06:30:38.179Z,4.10
2018-03-01T06:33:04.436Z,5.55
2018-03-01T06:35:30.667Z,6.07
2018-03-01T06:37:56.907Z,5.28
2018-03-01T06:40:23.143Z,5.20
2018-03-01T06:42:49.375Z,6.70
2018-03-01T06:45:15.579Z,6.20
2018-03-01T06:47:41.832Z,5.45
2018-03-01T06:50:08.043Z,5.57
2018-03-01T06:52:34.287Z,5.37
2018-03-01T06:55:00.491Z,7.20
2018-03-01T06:57:26.751Z,6.22
2018-03-01T06:59:52.964Z,6.25
2018-03-01T07:02:19.212Z,5.45
2018-03-01T07:04:45.451Z,6.35
2018-03-01T07:07:11.671Z,8.18
2018-03-01T07:09:37.971Z,7.72
2018-03-01T07:12:04.294Z,6.12
2018-03-01T07:14:30.540Z,6.82
2018-03-01T07:16:56.792Z,7.85
2018-03-01T07:19:23.039Z,7.75
2018-03-01T07:21:49.319Z,9.35
2018-03-01T07:24:15.562Z,8.23
2018-03-01T07:26:41.812Z,7.30
2018-03-01T07:29:08.028Z,8.47
2018-03-01T07:31:34.264Z,8.63
2018-03-01T07:34:00.483Z,8.77
2018-03-01T07:36:26.720Z,7.87
2018-03-01T07:38:52.934Z,7.90
2018-03-01T07:41:19.179Z,9.17
2018-03-01T07:43:45.401Z,8.03
2018-03-01T07:46:11.655Z,10.30
2018-03-01T07:48:37.916Z,9.87
2018-03-01T07:51:04.168Z,9.07
2018-03-01T07:53:30.424Z,8.07
2018-03-01T07:55:56.651Z,10.07
2018-03-01T07:58:22.887Z,10.77
2018-03-01T08:00:49.116Z,9.43
2018-03-01T08:03:15.359Z,9.00
2018-03-01T08:05:41.591Z,10.13
2018-03-01T08:08:07.820Z,9.30
2018-03-01T08:10:34.074Z,10.13
2018-03-01T08:13:00.359Z,8.60
2018-03-01T08:15:26.575Z,8.30
2018-03-01T08:17:52.802Z,8.40
2018-03-01T08:20:19.061Z,8.50
2018-03-01T08:22:45.267Z,8.13
2018-03-01T08:25:11.496Z,8.00
2018-03-01T08:27:37.720Z,8.03
2018-03-01T08:30:04.024Z,7.80
2018-03-01T08:32:30.272Z,8.97
2018-03-01T08:34:56.531Z,8.47
2018-03-01T08:37:22.768Z,8.40
2018-03-01T08:39:49.020Z,8.40
2018-03-01T08:42:15.285Z,8.67
2018-03-01T08:44:41.501Z,9.57
2018-03-01T08:47:07.740Z,8.90
2018-03-01T08:49:33.948Z,9.23
2018-03-01T08:52:00.219Z,7.80
2018-03-01T08:54:26.442Z,9.17
2018-03-01T08:56:52.676Z,9.37
2018-03-01T08:59:18.892Z,7.83
2018-03-01T09:01:45.127Z,8.77
2018-03-01T09:04:11.348Z,10.00
2018-03-01T09:06:37.612Z,8.83
2018-03-01T09:09:03.912Z,8.47
2018-03-01T09:11:30.148Z,7.73
2018-03-01T09:13:56.418Z,7.90
2018-03-01T09:16:22.688Z,8.57
2018-03-01T09:18:48.939Z,8.27
2018-03-01T09:21:15.157Z,8.80
2018-03-01T09:23:41.424Z,7.80
2018-03-01T09:26:07.671Z,8.27
2018-03-01T09:28:33.916Z,8.50
2018-03-01T09:31:00.172Z,7.97
2018-03-01T09:33:26.449Z,8.17
2018-03-01T09:35:52.685Z,8.67
2018-03-01T09:38:18.906Z,8.10
2018-03-01T09:40:45.140Z,7.30
2018-03-01T09:43:11.364Z,7.83
2018-03-01T09:45:37.609Z,8.20
2018-03-01T09:48:03.887Z,7.93
2018-03-01T09:50:30.132Z,8.83
2018-03-01T09:52:56.382Z,7.57
2018-03-01T09:55:22.636Z,8.20
2018-03-01T09:57:48.880Z,9.43
2018-03-01T10:00:15.129Z,7.90
2018-03-01T10:02:41.360Z,8.97
2018-03-01T10:05:07.617Z,7.57
2018-03-01T10:07:33.864Z,7.83
2018-03-01T10:10:00.095Z,7.83
2018-03-01T10:12:26.343Z,7.50
2018-03-01T10:14:52.592Z,8.27
2018-03-01T10:17:18.828Z,7.90
2018-03-01T10:19:45.057Z,9.07
2018-03-01T10:22:11.311Z,9.40
2018-03-01T10:24:37.528Z,12.73
2018-03-01T10:27:03.745Z,9.17
2018-03-01T10:29:29.968Z,9.40
2018-03-01T10:31:56.179Z,9.10
2018-03-01T10:34:22.456Z,8.77
2018-03-01T10:36:48.675Z,9.40
2018-03-01T10:39:14.909Z,8.63
2018-03-01T10:41:41.144Z,8.70
2018-03-01T10:44:07.423Z,9.00
2018-03-01T10:46:33.640Z,8.90
2018-03-01T10:48:59.888Z,9.67
2018-03-01T10:51:26.128Z,10.70
2018-03-01T10:53:52.378Z,10.03
2018-03-01T10:56:18.600Z,9.93
2018-03-01T10:58:44.816Z,11.37
2018-03-01T11:01:17.035Z,10.93
2018-03-01T11:03:43.290Z,10.57
2018-03-01T11:06:09.528Z,11.00
2018-03-01T11:08:35.760Z,11.40
2018-03-01T11:11:02.051Z,10.23
2018-03-01T11:13:28.371Z,10.87
2018-03-01T11:15:54.600Z,11.67
2018-03-01T11:18:20.839Z,11.30
2018-03-01T11:20:47.095Z,11.10
2018-03-01T11:23:13.418Z,11.27
2018-03-01T11:25:39.640Z,12.70
2018-03-01T11:28:05.916Z,12.50
2018-03-01T11:30:32.124Z,12.57
2018-03-01T11:32:58.357Z,12.57
2018-03-01T11:35:24.576Z,12.60
2018-03-01T11:37:50.836Z,13.43
2018-03-01T11:40:17.055Z,13.40
2018-03-01T11:42:43.276Z,13.73
2018-03-01T11:45:09.520Z,13.07
2018-03-01T11:47:35.747Z,12.87
2018-03-01T11:50:02.056Z,13.80
2018-03-01T11:52:28.279Z,16.50
2018-03-01T11:54:54.524Z,14.07
2018-03-01T11:57:20.807Z,14.60
2018-03-01T11:59:47.011Z,13.47
2018-03-01T12:02:13.228Z,13.97
2018-03-01T12:04:39.491Z,14.07
2018-03-01T12:07:05.719Z,13.50
2018-03-01T12:09:32.012Z,13.70
2018-03-01T12:11:58.276Z,13.77
2018-03-01T12:14:24.504Z,13.30
2018-03-01T12:16:50.776Z,11.87
2018-03-01T12:19:17.044Z,13.73
2018-03-01T12:21:43.288Z,11.80
2018-03-01T12:24:09.515Z,12.80
2018-03-01T12:26:35.764Z,11.63
2018-03-01T12:29:01.995Z,11.87
2018-03-01T12:31:28.255Z,14.30
2018-03-01T12:33:54.480Z,12.33
2018-03-01T12:36:20.703Z,11.80
2018-03-01T12:38:46.956Z,11.13
2018-03-01T12:41:13.191Z,12.60
2018-03-01T12:43:39.423Z,11.37
2018-03-01T12:46:05.707Z,10.17
2018-03-01T12:48:31.930Z,10.97
2018-03-01T12:50:58.197Z,10.43
2018-03-01T12:53:24.480Z,10.37
2018-03-01T12:55:50.752Z,10.47
2018-03-01T12:58:17.036Z,10.77
2018-03-01T13:00:43.370Z,11.00
2018-03-01T13:03:09.608Z,11.00
2018-03-01T13:05:35.920Z,11.83
2018-03-01T13:08:02.220Z,11.40
2018-03-01T13:10:28.504Z,10.93
2018-03-01T13:12:54.772Z,14.73
2018-03-01T13:15:21.073Z,15.07
2018-03-01T13:17:47.332Z,10.60
2018-03-01T13:20:13.617Z,10.90
2018-03-01T13:22:39.904Z,12.30
2018-03-01T13:25:06.316Z,12.43
2018-03-01T13:27:32.585Z,12.83
2018-03-01T13:29:58.835Z,12.37
2018-03-01T13:32:26.079Z,13.00
2018-03-01T13:48:24.796Z,12.23
2018-03-01T13:50:51.068Z,11.97
2018-03-01T13:53:17.372Z,11.93
2018-03-01T13:55:43.650Z,11.57
2018-03-01T13:58:09.900Z,12.27
2018-03-01T14:00:36.168Z,13.80
2018-03-01T14:03:02.462Z,12.80
2018-03-01T14:05:28.764Z,12.47
2018-03-01T14:07:55.982Z,11.63
2018-03-01T14:10:22.260Z,12.70
2018-03-01T14:26:34.324Z,12.77
2018-03-01T14:31:57.940Z,12.40
2018-03-01T14:34:24.163Z,12.90
2018-03-01T14:36:50.412Z,12.00
2018-03-01T14:39:16.631Z,12.73
2018-03-01T14:41:42.871Z,12.27
2018-03-01T14:44:09.100Z,12.63
2018-03-01T14:46:35.319Z,10.90
2018-03-01T14:49:01.595Z,11.87
2018-03-01T14:51:27.886Z,11.53
2018-03-01T14:53:54.128Z,11.53
2018-03-01T14:56:20.353Z,11.23
2018-03-01T14:58:46.596Z,11.60
2018-03-01T15:01:12.836Z,11.13
2018-03-01T15:03:39.096Z,11.07
2018-03-01T15:06:05.327Z,10.87
2018-03-01T15:08:31.583Z,10.77
2018-03-01T15:10:57.819Z,10.73
2018-03-01T15:13:24.066Z,11.00
2018-03-01T15:15:50.412Z,10.57
2018-03-01T15:18:16.628Z,11.80
2018-03-01T15:20:42.874Z,11.37
2018-03-01T15:23:09.084Z,10.33
2018-03-01T15:25:35.344Z,10.80
2018-03-01T15:28:01.635Z,10.77
2018-03-01T15:30:27.844Z,11.27
2018-03-01T15:32:54.083Z,11.20
2018-03-01T15:35:20.315Z,10.90
2018-03-01T15:37:46.551Z,10.20
2018-03-01T15:40:12.776Z,11.60
2018-03-01T15:42:39.060Z,10.93
2018-03-01T15:45:05.333Z,11.57
2018-03-01T15:47:31.581Z,10.43
2018-03-01T15:49:57.827Z,9.73
2018-03-01T15:52:24.093Z,9.80
2018-03-01T15:54:50.316Z,10.50
2018-03-01T15:57:16.544Z,10.27
2018-03-01T15:59:42.805Z,9.80
2018-03-01T16:02:09.041Z,8.73
2018-03-01T16:04:35.300Z,7.80
2018-03-01T16:07:01.512Z,8.77
2018-03-01T16:09:27.760Z,8.27
2018-03-01T16:11:53.992Z,8.57
2018-03-01T16:14:20.279Z,8.63
2018-03-01T16:16:46.484Z,9.07
2018-03-01T16:19:12.755Z,8.13
2018-03-01T16:21:38.975Z,8.17
2018-03-01T16:24:05.234Z,9.00
2018-03-01T16:26:31.475Z,9.73
2018-03-01T16:28:57.785Z,12.07
2018-03-01T16:31:24.181Z,12.87
2018-03-01T16:33:50.440Z,12.67
2018-03-01T16:36:16.722Z,12.83
2018-03-01T16:38:42.971Z,12.27
2018-03-01T16:41:09.227Z,12.90
2018-03-01T16:43:35.464Z,11.93
2018-03-01T16:46:01.691Z,12.77
2018-03-01T16:48:27.947Z,12.03
2018-03-01T16:50:54.215Z,12.40
2018-03-01T16:53:20.462Z,12.53
2018-03-01T16:55:46.712Z,12.37
2018-03-01T16:58:13.376Z,11.90
2018-03-01T17:00:40.056Z,13.43
2018-03-01T17:03:06.642Z,12.73
2018-03-01T17:05:33.127Z,14.33
2018-03-01T17:07:59.437Z,12.77
2018-03-01T17:10:26.035Z,14.10
2018-03-01T17:12:52.639Z,12.90
2018-03-01T17:15:19.229Z,12.70
2018-03-01T17:17:45.496Z,12.83
2018-03-01T17:20:11.960Z,15.20
2018-03-01T17:22:38.377Z,13.67
2018-03-01T17:25:04.972Z,13.57
2018-03-01T17:27:31.812Z,13.40
2018-03-01T17:29:58.119Z,13.27
2018-03-01T17:32:24.672Z,13.20
2018-03-01T17:34:51.111Z,13.37
2018-03-01T17:37:17.617Z,12.80
2018-03-01T17:39:44.142Z,13.77
2018-03-01T17:42:11.809Z,12.20
2018-03-01T17:44:38.612Z,11.43
2018-03-01T17:47:05.422Z,14.20
2018-03-01T17:49:33.136Z,12.53
2018-03-01T17:51:59.893Z,12.10
2018-03-01T17:54:27.560Z,13.13
2018-03-01T17:56:54.220Z,13.10
2018-03-01T17:59:20.847Z,12.60
2018-03-01T18:01:47.217Z,13.17
2018-03-01T18:04:13.597Z,10.87
2018-03-01T18:06:40.123Z,11.47
2018-03-01T18:09:06.626Z,11.03
2018-03-01T18:11:32.876Z,12.23
2018-03-01T18:13:59.139Z,11.17
2018-03-01T18:16:25.363Z,12.23
2018-03-01T18:18:51.635Z,11.10
2018-03-01T18:21:18.076Z,12.80
2018-03-01T18:23:44.737Z,12.23
2018-03-01T18:26:10.992Z,11.60
2018-03-01T18:28:37.263Z,12.37
2018-03-01T18:31:03.503Z,10.97
2018-03-01T18:33:29.777Z,12.37
2018-03-01T18:35:56.019Z,10.20
2018-03-01T18:38:22.255Z,10.87
2018-03-01T18:40:48.667Z,13.43
2018-03-01T18:43:15.016Z,13.77
2018-03-01T18:45:41.427Z,12.43
2018-03-01T18:48:07.662Z,12.97
2018-03-01T18:50:33.971Z,11.50
2018-03-01T18:53:00.335Z,13.77
2018-03-01T18:55:26.563Z,12.27
2018-03-01T18:57:52.823Z,12.40
2018-03-01T19:00:19.287Z,13.37
2018-03-01T19:02:45.524Z,12.63
2018-03-01T19:05:11.801Z,14.03
2018-03-01T19:07:38.068Z,11.47
2018-03-01T19:10:04.300Z,12.53
2018-03-01T19:12:30.597Z,13.13
2018-03-01T19:14:57.128Z,12.20
2018-03-01T19:17:23.380Z,13.17
2018-03-01T19:19:49.630Z,13.93
2018-03-01T19:22:16.032Z,12.77
2018-03-01T19:24:42.308Z,12.97
2018-03-01T19:27:08.548Z,11.73
2018-03-01T19:29:34.820Z,12.90
2018-03-01T19:32:01.043Z,13.53
2018-03-01T19:34:27.276Z,13.30
2018-03-01T19:36:53.507Z,12.20
2018-03-01T19:39:19.747Z,13.57
2018-03-01T19:41:46.015Z,20.33
2018-03-01T19:44:12.245Z,17.50
2018-03-01T19:46:45.420Z,13.63
2018-03-01T19:49:11.683Z,12.27
2018-03-01T19:51:37.964Z,13.50
2018-03-01T19:54:04.244Z,13.33
2018-03-01T19:56:30.500Z,13.37
2018-03-01T19:58:56.796Z,12.33
2018-03-01T20:01:23.030Z,12.97
2018-03-01T20:03:49.559Z,12.63
2018-03-01T20:06:16.068Z,13.70
2018-03-01T20:08:42.723Z,12.13
2018-03-01T20:11:09.378Z,12.27
2018-03-01T20:13:47.747Z,11.77
2018-03-01T20:16:14.287Z,14.20
2018-03-01T20:18:40.610Z,12.67
2018-03-01T20:21:07.185Z,13.37
2018-03-01T20:23:33.688Z,12.50
2018-03-01T20:26:00.189Z,12.67
2018-03-01T20:28:26.776Z,11.70
2018-03-01T20:30:53.041Z,12.13
2018-03-01T20:33:19.594Z,13.20
2018-03-01T20:35:45.967Z,12.23
2018-03-01T20:38:12.203Z,12.93
2018-03-01T20:40:38.515Z,14.53
2018-03-01T20:43:04.971Z,13.63
2018-03-01T20:45:31.687Z,13.70
2018-03-01T20:47:58.280Z,13.47
2018-03-01T20:50:24.543Z,13.70
2018-03-01T20:52:50.800Z,12.90
2018-03-01T20:55:17.404Z,13.00
2018-03-01T20:57:44.138Z,12.27
2018-03-01T21:00:10.377Z,12.13
2018-03-01T21:02:36.950Z,13.83
2018-03-01T21:05:03.248Z,13.80
2018-03-01T21:07:29.719Z,13.50
2018-03-01T21:09:56.092Z,13.77
2018-03-01T21:12:22.394Z,12.97
2018-03-01T21:14:48.614Z,13.93
2018-03-01T21:17:14.972Z,12.83
2018-03-01T21:19:41.283Z,11.70
2018-03-01T21:22:07.581Z,14.23
2018-03-01T21:24:33.953Z,14.00
2018-03-01T21:27:00.185Z,18.73
2018-03-01T21:29:26.450Z,18.07
2018-03-01T21:31:52.672Z,11.67
2018-03-01T21:34:19.295Z,13.67
2018-03-01T21:36:45.573Z,13.40
2018-03-01T21:39:12.141Z,13.93
2018-03-01T21:41:38.451Z,13.27
2018-03-01T21:44:04.747Z,13.83
2018-03-01T21:46:31.169Z,11.43
2018-03-01T21:48:57.452Z,12.43
2018-03-01T21:51:23.992Z,14.10
2018-03-01T21:53:50.358Z,12.13
2018-03-01T21:56:16.763Z,13.20
2018-03-01T21:58:43.365Z,12.17
2018-03-01T22:01:11.102Z,11.90
2018-03-01T22:03:37.710Z,12.60
2018-03-01T22:06:04.322Z,12.50
2018-03-01T22:08:30.688Z,11.27
2018-03-01T22:10:57.972Z,12.65
2018-03-01T22:13:24.512Z,13.63
2018-03-01T22:15:50.978Z,14.10
2018-03-01T22:18:17.637Z,13.13
2018-03-01T22:20:44.374Z,13.97
2018-03-01T22:23:11.051Z,13.90
2018-03-01T22:25:37.612Z,11.53
2018-03-01T22:28:03.981Z,13.27
2018-03-01T22:30:30.300Z,13.93
2018-03-01T22:32:56.745Z,14.07
2018-03-01T22:35:23.180Z,14.03
2018-03-01T22:37:49.739Z,14.07
2018-03-01T22:40:16.396Z,11.30
2018-03-01T22:42:42.728Z,13.73
2018-03-01T22:45:09.385Z,13.73
2018-03-01T22:47:36.104Z,14.37
2018-03-01T22:50:02.915Z,13.67
2018-03-01T22:52:29.472Z,13.30
2018-03-01T22:54:56.067Z,12.40
2018-03-01T22:57:22.622Z,14.67
2018-03-01T22:59:49.888Z,13.07
2018-03-01T23:02:16.172Z,13.90
2018-03-01T23:04:42.708Z,13.13
2018-03-01T23:07:08.960Z,12.83
2018-03-01T23:09:35.502Z,14.83
2018-03-01T23:12:01.894Z,12.70
2018-03-01T23:14:28.277Z,13.57
2018-03-01T23:16:54.984Z,14.23
2018-03-01T23:19:21.499Z,13.15
2018-03-01T23:21:48.003Z,14.63
2018-03-01T23:24:14.412Z,14.47
2018-03-01T23:26:40.716Z,14.07
2018-03-01T23:29:06.973Z,12.80
2018-03-01T23:31:33.516Z,14.20
2018-03-01T23:34:00.172Z,14.93
2018-03-01T23:36:26.736Z,13.53
2018-03-01T23:38:53.199Z,13.15
2018-03-01T23:41:19.691Z,14.87
2018-03-01T23:43:46.090Z,14.05
2018-03-01T23:46:12.611Z,11.80
2018-03-01T23:48:38.994Z,14.15
2018-03-01T23:51:05.540Z,13.77
2018-03-01T23:53:31.936Z,13.53
2018-03-01T23:55:58.203Z,14.98
2018-03-01T23:58:24.731Z,13.15
